<?xml version="1.0" encoding="UTF-8" standalone="no" ?>
<gpx xmlns="http://www.topografix.com/GPX/1/1" xmlns:xsi="http://www.w3.org/2001/XMLSchema-instance" xsi:schemaLocation="http://www.topografix.com/GPX/1/1 http://www.topografix.com/GPX/1/1/gpx.xsd" version="1.1" creator="VisuGPX - https://www.visugpx.com">
  <metadata>
    <name>boucle 2 dans l'ile Cremieu</name>
    <desc><![CDATA[Départ de Crémieu, puis une boucle en suivant des petites routes blanches de village en village.]]></desc>
  </metadata>
  <wpt lat="45.76381" lon="5.3221">
    <ele>277.7</ele>
    <name><![CDATA[étang de la Tuille]]></name>
    <type><![CDATA[water]]></type>
  </wpt>
  <wpt lat="45.77315" lon="5.34536">
    <ele>324.2</ele>
    <name><![CDATA[four communal]]></name>
    <type><![CDATA[patrimoine_rural]]></type>
  </wpt>
  <trk>
    <name><![CDATA[boucle depuis Crémieu en Isère]]></name>
    <extensions>
      <line xmlns="http://www.topografix.com/GPX/gpx_style/0/2">
        <color>0000FF</color>
        <width>4</width>
      </line>
    </extensions>
    <trkseg>
      <trkpt lat="45.72435" lon="5.24957">
        <ele>219</ele>
        <time>2022-05-04T12:12:00.000Z</time>
      </trkpt>
      <trkpt lat="45.72396" lon="5.25357">
        <ele>222</ele>
        <time>2022-05-04T12:13:36.686Z</time>
      </trkpt>
      <trkpt lat="45.72429" lon="5.25389">
        <ele>217.6</ele>
        <time>2022-05-04T12:13:41.474Z</time>
      </trkpt>
      <trkpt lat="45.72494" lon="5.25434">
        <ele>217.8</ele>
        <time>2022-05-04T12:14:04.399Z</time>
      </trkpt>
      <trkpt lat="45.72548" lon="5.25505">
        <ele>221.1</ele>
        <time>2022-05-04T12:14:42.812Z</time>
      </trkpt>
      <trkpt lat="45.72561" lon="5.25553">
        <ele>225</ele>
        <time>2022-05-04T12:15:14.355Z</time>
      </trkpt>
      <trkpt lat="45.72706" lon="5.25467">
        <ele>218</ele>
        <time>2022-05-04T12:15:35.097Z</time>
      </trkpt>
      <trkpt lat="45.72949" lon="5.25457">
        <ele>215</ele>
        <time>2022-05-04T12:16:20.585Z</time>
      </trkpt>
      <trkpt lat="45.72986" lon="5.25604">
        <ele>218</ele>
        <time>2022-05-04T12:17:05.713Z</time>
      </trkpt>
      <trkpt lat="45.73115" lon="5.25678">
        <ele>219</ele>
        <time>2022-05-04T12:17:51.754Z</time>
      </trkpt>
      <trkpt lat="45.73225" lon="5.25804">
        <ele>219.9</ele>
        <time>2022-05-04T12:18:38.052Z</time>
      </trkpt>
      <trkpt lat="45.73231" lon="5.25831">
        <ele>220.6</ele>
        <time>2022-05-04T12:18:47.110Z</time>
      </trkpt>
      <trkpt lat="45.73274" lon="5.26043">
        <ele>224.4</ele>
        <time>2022-05-04T12:19:48.718Z</time>
      </trkpt>
      <trkpt lat="45.73315" lon="5.26299">
        <ele>232.8</ele>
        <time>2022-05-04T12:21:25.285Z</time>
      </trkpt>
      <trkpt lat="45.73388" lon="5.26421">
        <ele>241.7</ele>
        <time>2022-05-04T12:22:40.435Z</time>
      </trkpt>
      <trkpt lat="45.7348" lon="5.26545">
        <ele>257</ele>
        <time>2022-05-04T12:24:48.451Z</time>
      </trkpt>
      <trkpt lat="45.73556" lon="5.2665">
        <ele>266</ele>
        <time>2022-05-04T12:26:02.743Z</time>
      </trkpt>
      <trkpt lat="45.73571" lon="5.26739">
        <ele>265.5</ele>
        <time>2022-05-04T12:26:15.439Z</time>
      </trkpt>
      <trkpt lat="45.73633" lon="5.26933">
        <ele>277</ele>
        <time>2022-05-04T12:27:53.526Z</time>
      </trkpt>
      <trkpt lat="45.73659" lon="5.26986">
        <ele>279</ele>
        <time>2022-05-04T12:28:17.051Z</time>
      </trkpt>
      <trkpt lat="45.73738" lon="5.26937">
        <ele>281</ele>
        <time>2022-05-04T12:28:50.896Z</time>
      </trkpt>
      <trkpt lat="45.73867" lon="5.26848">
        <ele>289</ele>
        <time>2022-05-04T12:30:11.480Z</time>
      </trkpt>
      <trkpt lat="45.73953" lon="5.26825">
        <ele>289</ele>
        <time>2022-05-04T12:30:38.556Z</time>
      </trkpt>
      <trkpt lat="45.74032" lon="5.26867">
        <ele>296</ele>
        <time>2022-05-04T12:31:36.772Z</time>
      </trkpt>
      <trkpt lat="45.74213" lon="5.26975">
        <ele>301.1</ele>
        <time>2022-05-04T12:32:56.433Z</time>
      </trkpt>
      <trkpt lat="45.74419" lon="5.27126">
        <ele>316</ele>
        <time>2022-05-04T12:35:14.691Z</time>
      </trkpt>
      <trkpt lat="45.74646" lon="5.27232">
        <ele>332</ele>
        <time>2022-05-04T12:37:40.106Z</time>
      </trkpt>
      <trkpt lat="45.74719" lon="5.27273">
        <ele>336</ele>
        <time>2022-05-04T12:38:22.821Z</time>
      </trkpt>
      <trkpt lat="45.74803" lon="5.27283">
        <ele>344</ele>
        <time>2022-05-04T12:39:27.455Z</time>
      </trkpt>
      <trkpt lat="45.74872" lon="5.27288">
        <ele>351</ele>
        <time>2022-05-04T12:40:23.784Z</time>
      </trkpt>
      <trkpt lat="45.75067" lon="5.27378">
        <ele>360</ele>
        <time>2022-05-04T12:42:09.881Z</time>
      </trkpt>
      <trkpt lat="45.75131" lon="5.27496">
        <ele>362.9</ele>
        <time>2022-05-04T12:42:53.188Z</time>
      </trkpt>
      <trkpt lat="45.75202" lon="5.2771">
        <ele>370</ele>
        <time>2022-05-04T12:44:17.537Z</time>
      </trkpt>
      <trkpt lat="45.75284" lon="5.27853">
        <ele>375</ele>
        <time>2022-05-04T12:45:19.471Z</time>
      </trkpt>
      <trkpt lat="45.75373" lon="5.2806">
        <ele>380</ele>
        <time>2022-05-04T12:46:31.393Z</time>
      </trkpt>
      <trkpt lat="45.75371" lon="5.28207">
        <ele>384</ele>
        <time>2022-05-04T12:47:20.783Z</time>
      </trkpt>
      <trkpt lat="45.75357" lon="5.28371">
        <ele>383</ele>
        <time>2022-05-04T12:47:43.424Z</time>
      </trkpt>
      <trkpt lat="45.75369" lon="5.28557">
        <ele>377</ele>
        <time>2022-05-04T12:48:00.428Z</time>
      </trkpt>
      <trkpt lat="45.75338" lon="5.28652">
        <ele>378</ele>
        <time>2022-05-04T12:48:26.316Z</time>
      </trkpt>
      <trkpt lat="45.75255" lon="5.28866">
        <ele>384</ele>
        <time>2022-05-04T12:49:44.265Z</time>
      </trkpt>
      <trkpt lat="45.75243" lon="5.28996">
        <ele>391</ele>
        <time>2022-05-04T12:50:44.187Z</time>
      </trkpt>
      <trkpt lat="45.75244" lon="5.29">
        <ele>391</ele>
        <time>2022-05-04T12:50:45.105Z</time>
      </trkpt>
      <trkpt lat="45.75327" lon="5.29047">
        <ele>391</ele>
        <time>2022-05-04T12:51:12.725Z</time>
      </trkpt>
      <trkpt lat="45.75488" lon="5.29084">
        <ele>390</ele>
        <time>2022-05-04T12:51:58.855Z</time>
      </trkpt>
      <trkpt lat="45.75598" lon="5.29219">
        <ele>400</ele>
        <time>2022-05-04T12:53:28.404Z</time>
      </trkpt>
      <trkpt lat="45.7573" lon="5.29324">
        <ele>413</ele>
        <time>2022-05-04T12:55:15.423Z</time>
      </trkpt>
      <trkpt lat="45.76085" lon="5.29498">
        <ele>418</ele>
        <time>2022-05-04T12:57:27.685Z</time>
      </trkpt>
      <trkpt lat="45.76285" lon="5.2959">
        <ele>412.5</ele>
        <time>2022-05-04T12:58:01.038Z</time>
      </trkpt>
      <trkpt lat="45.76501" lon="5.29739">
        <ele>406</ele>
        <time>2022-05-04T12:58:38.717Z</time>
      </trkpt>
      <trkpt lat="45.76568" lon="5.29809">
        <ele>405.3</ele>
        <time>2022-05-04T12:58:55.051Z</time>
      </trkpt>
      <trkpt lat="45.76682" lon="5.29848">
        <ele>404</ele>
        <time>2022-05-04T12:59:17.340Z</time>
      </trkpt>
      <trkpt lat="45.76791" lon="5.29942">
        <ele>406.5</ele>
        <time>2022-05-04T13:00:05.351Z</time>
      </trkpt>
      <trkpt lat="45.76963" lon="5.29969">
        <ele>405.5</ele>
        <time>2022-05-04T13:00:54.546Z</time>
      </trkpt>
      <trkpt lat="45.77105" lon="5.29958">
        <ele>397</ele>
        <time>2022-05-04T13:01:11.061Z</time>
      </trkpt>
      <trkpt lat="45.77145" lon="5.30098">
        <ele>389</ele>
        <time>2022-05-04T13:01:23.740Z</time>
      </trkpt>
      <trkpt lat="45.77204" lon="5.30185">
        <ele>388.6</ele>
        <time>2022-05-04T13:01:48.166Z</time>
      </trkpt>
      <trkpt lat="45.77214" lon="5.30253">
        <ele>383.9</ele>
        <time>2022-05-04T13:01:53.990Z</time>
      </trkpt>
      <trkpt lat="45.7723" lon="5.30492">
        <ele>377</ele>
        <time>2022-05-04T13:02:16.832Z</time>
      </trkpt>
      <trkpt lat="45.77405" lon="5.30721">
        <ele>356.5</ele>
        <time>2022-05-04T13:02:45.299Z</time>
      </trkpt>
      <trkpt lat="45.77443" lon="5.30824">
        <ele>355</ele>
        <time>2022-05-04T13:02:59.396Z</time>
      </trkpt>
      <trkpt lat="45.77398" lon="5.3091">
        <ele>352</ele>
        <time>2022-05-04T13:03:09.740Z</time>
      </trkpt>
      <trkpt lat="45.77374" lon="5.31027">
        <ele>346</ele>
        <time>2022-05-04T13:03:19.960Z</time>
      </trkpt>
      <trkpt lat="45.77302" lon="5.31089">
        <ele>343</ele>
        <time>2022-05-04T13:03:32.037Z</time>
      </trkpt>
      <trkpt lat="45.77198" lon="5.31099">
        <ele>339.3</ele>
        <time>2022-05-04T13:03:47.059Z</time>
      </trkpt>
      <trkpt lat="45.77066" lon="5.31202">
        <ele>335</ele>
        <time>2022-05-04T13:04:10.305Z</time>
      </trkpt>
      <trkpt lat="45.76959" lon="5.31252">
        <ele>330</ele>
        <time>2022-05-04T13:04:25.204Z</time>
      </trkpt>
      <trkpt lat="45.76865" lon="5.31384">
        <ele>324</ele>
        <time>2022-05-04T13:04:42.439Z</time>
      </trkpt>
      <trkpt lat="45.76775" lon="5.31502">
        <ele>313</ele>
        <time>2022-05-04T13:04:57.093Z</time>
      </trkpt>
      <trkpt lat="45.76663" lon="5.31558">
        <ele>306.9</ele>
        <time>2022-05-04T13:05:11.854Z</time>
      </trkpt>
      <trkpt lat="45.76585" lon="5.3168">
        <ele>293.9</ele>
        <time>2022-05-04T13:05:25.724Z</time>
      </trkpt>
      <trkpt lat="45.76624" lon="5.31813">
        <ele>292.7</ele>
        <time>2022-05-04T13:05:44.657Z</time>
      </trkpt>
      <trkpt lat="45.76576" lon="5.31981">
        <ele>291</ele>
        <time>2022-05-04T13:06:08.028Z</time>
      </trkpt>
      <trkpt lat="45.76377" lon="5.3217">
        <ele>279.6</ele>
        <time>2022-05-04T13:06:38.699Z</time>
      </trkpt>
      <trkpt lat="45.76333" lon="5.32283">
        <ele>282.6</ele>
        <time>2022-05-04T13:07:18.866Z</time>
      </trkpt>
      <trkpt lat="45.76194" lon="5.32352">
        <ele>280.7</ele>
        <time>2022-05-04T13:07:46.188Z</time>
      </trkpt>
      <trkpt lat="45.76092" lon="5.32526">
        <ele>282.4</ele>
        <time>2022-05-04T13:08:40.604Z</time>
      </trkpt>
      <trkpt lat="45.76016" lon="5.32539">
        <ele>281.9</ele>
        <time>2022-05-04T13:09:02.137Z</time>
      </trkpt>
      <trkpt lat="45.75827" lon="5.32717">
        <ele>283.6</ele>
        <time>2022-05-04T13:10:17.303Z</time>
      </trkpt>
      <trkpt lat="45.7567" lon="5.32919">
        <ele>283</ele>
        <time>2022-05-04T13:11:19.873Z</time>
      </trkpt>
      <trkpt lat="45.7616" lon="5.32946">
        <ele>301.7</ele>
        <time>2022-05-04T13:15:13.106Z</time>
      </trkpt>
      <trkpt lat="45.76303" lon="5.33105">
        <ele>310.1</ele>
        <time>2022-05-04T13:16:48.797Z</time>
      </trkpt>
      <trkpt lat="45.76445" lon="5.33174">
        <ele>314.8</ele>
        <time>2022-05-04T13:17:53.892Z</time>
      </trkpt>
      <trkpt lat="45.76547" lon="5.33305">
        <ele>317.4</ele>
        <time>2022-05-04T13:18:45.199Z</time>
      </trkpt>
      <trkpt lat="45.76666" lon="5.33431">
        <ele>319.4</ele>
        <time>2022-05-04T13:19:37.457Z</time>
      </trkpt>
      <trkpt lat="45.76983" lon="5.33929">
        <ele>325.7</ele>
        <time>2022-05-04T13:22:23.364Z</time>
      </trkpt>
      <trkpt lat="45.77347" lon="5.3453">
        <ele>323.9</ele>
        <time>2022-05-04T13:25:07.058Z</time>
      </trkpt>
      <trkpt lat="45.77465" lon="5.34738">
        <ele>316.6</ele>
        <time>2022-05-04T13:25:33.094Z</time>
      </trkpt>
      <trkpt lat="45.77579" lon="5.34777">
        <ele>314.2</ele>
        <time>2022-05-04T13:25:52.943Z</time>
      </trkpt>
      <trkpt lat="45.77665" lon="5.34839">
        <ele>313.2</ele>
        <time>2022-05-04T13:26:11.419Z</time>
      </trkpt>
      <trkpt lat="45.77733" lon="5.34942">
        <ele>314.3</ele>
        <time>2022-05-04T13:26:45.505Z</time>
      </trkpt>
      <trkpt lat="45.7789" lon="5.34905">
        <ele>311.5</ele>
        <time>2022-05-04T13:27:13.388Z</time>
      </trkpt>
      <trkpt lat="45.78002" lon="5.34996">
        <ele>315.1</ele>
        <time>2022-05-04T13:28:06.949Z</time>
      </trkpt>
      <trkpt lat="45.78081" lon="5.35098">
        <ele>313</ele>
        <time>2022-05-04T13:28:25.107Z</time>
      </trkpt>
      <trkpt lat="45.78147" lon="5.35233">
        <ele>312</ele>
        <time>2022-05-04T13:28:47.681Z</time>
      </trkpt>
      <trkpt lat="45.78198" lon="5.3539">
        <ele>312.1</ele>
        <time>2022-05-04T13:29:25.349Z</time>
      </trkpt>
      <trkpt lat="45.78303" lon="5.356">
        <ele>309</ele>
        <time>2022-05-04T13:29:57.079Z</time>
      </trkpt>
      <trkpt lat="45.78426" lon="5.35693">
        <ele>307</ele>
        <time>2022-05-04T13:30:22.431Z</time>
      </trkpt>
      <trkpt lat="45.78576" lon="5.35769">
        <ele>302</ele>
        <time>2022-05-04T13:30:46.322Z</time>
      </trkpt>
      <trkpt lat="45.78675" lon="5.3574">
        <ele>301</ele>
        <time>2022-05-04T13:31:05.844Z</time>
      </trkpt>
      <trkpt lat="45.78788" lon="5.35678">
        <ele>295.4</ele>
        <time>2022-05-04T13:31:21.594Z</time>
      </trkpt>
      <trkpt lat="45.78966" lon="5.35545">
        <ele>296</ele>
        <time>2022-05-04T13:32:25.461Z</time>
      </trkpt>
      <trkpt lat="45.79153" lon="5.35536">
        <ele>278</ele>
        <time>2022-05-04T13:32:47.941Z</time>
      </trkpt>
      <trkpt lat="45.79268" lon="5.35581">
        <ele>268.9</ele>
        <time>2022-05-04T13:33:02.263Z</time>
      </trkpt>
      <trkpt lat="45.79439" lon="5.35635">
        <ele>260.2</ele>
        <time>2022-05-04T13:33:24.382Z</time>
      </trkpt>
      <trkpt lat="45.79511" lon="5.35574">
        <ele>258</ele>
        <time>2022-05-04T13:33:37.643Z</time>
      </trkpt>
      <trkpt lat="45.79721" lon="5.35729">
        <ele>256</ele>
        <time>2022-05-04T13:34:24.156Z</time>
      </trkpt>
      <trkpt lat="45.79971" lon="5.35945">
        <ele>254</ele>
        <time>2022-05-04T13:35:45.899Z</time>
      </trkpt>
      <trkpt lat="45.8026" lon="5.36283">
        <ele>252.5</ele>
        <time>2022-05-04T13:37:34.605Z</time>
      </trkpt>
      <trkpt lat="45.80478" lon="5.36549">
        <ele>252.2</ele>
        <time>2022-05-04T13:39:01.781Z</time>
      </trkpt>
      <trkpt lat="45.80477" lon="5.36549">
        <ele>252.2</ele>
        <time>2022-05-04T13:39:02.091Z</time>
      </trkpt>
      <trkpt lat="45.80388" lon="5.36621">
        <ele>256</ele>
        <time>2022-05-04T13:39:50.052Z</time>
      </trkpt>
      <trkpt lat="45.80112" lon="5.36546">
        <ele>254</ele>
        <time>2022-05-04T13:41:08.440Z</time>
      </trkpt>
      <trkpt lat="45.79935" lon="5.36487">
        <ele>258</ele>
        <time>2022-05-04T13:42:18.883Z</time>
      </trkpt>
      <trkpt lat="45.79812" lon="5.36466">
        <ele>257</ele>
        <time>2022-05-04T13:42:43.409Z</time>
      </trkpt>
      <trkpt lat="45.79626" lon="5.36335">
        <ele>256.5</ele>
        <time>2022-05-04T13:43:45.254Z</time>
      </trkpt>
      <trkpt lat="45.79547" lon="5.36232">
        <ele>255</ele>
        <time>2022-05-04T13:44:04.800Z</time>
      </trkpt>
      <trkpt lat="45.79395" lon="5.36167">
        <ele>255</ele>
        <time>2022-05-04T13:44:53.890Z</time>
      </trkpt>
      <trkpt lat="45.79198" lon="5.36094">
        <ele>257</ele>
        <time>2022-05-04T13:46:03.093Z</time>
      </trkpt>
      <trkpt lat="45.79089" lon="5.36166">
        <ele>259</ele>
        <time>2022-05-04T13:46:46.925Z</time>
      </trkpt>
      <trkpt lat="45.78901" lon="5.3638">
        <ele>267</ele>
        <time>2022-05-04T13:48:33.855Z</time>
      </trkpt>
      <trkpt lat="45.78767" lon="5.36536">
        <ele>264</ele>
        <time>2022-05-04T13:49:04.181Z</time>
      </trkpt>
      <trkpt lat="45.78503" lon="5.36832">
        <ele>263</ele>
        <time>2022-05-04T13:50:43.361Z</time>
      </trkpt>
      <trkpt lat="45.78265" lon="5.37035">
        <ele>265</ele>
        <time>2022-05-04T13:52:15.137Z</time>
      </trkpt>
      <trkpt lat="45.78104" lon="5.37128">
        <ele>270</ele>
        <time>2022-05-04T13:53:28.112Z</time>
      </trkpt>
      <trkpt lat="45.77789" lon="5.37319">
        <ele>272</ele>
        <time>2022-05-04T13:55:19.951Z</time>
      </trkpt>
      <trkpt lat="45.77707" lon="5.37388">
        <ele>276</ele>
        <time>2022-05-04T13:56:07.826Z</time>
      </trkpt>
      <trkpt lat="45.77623" lon="5.37583">
        <ele>278</ele>
        <time>2022-05-04T13:57:03.703Z</time>
      </trkpt>
      <trkpt lat="45.77568" lon="5.37744">
        <ele>280</ele>
        <time>2022-05-04T13:57:49.044Z</time>
      </trkpt>
      <trkpt lat="45.77471" lon="5.37858">
        <ele>281</ele>
        <time>2022-05-04T13:58:30.920Z</time>
      </trkpt>
      <trkpt lat="45.7743" lon="5.38014">
        <ele>287</ele>
        <time>2022-05-04T13:59:34.511Z</time>
      </trkpt>
      <trkpt lat="45.7744" lon="5.38132">
        <ele>290</ele>
        <time>2022-05-04T14:00:12.892Z</time>
      </trkpt>
      <trkpt lat="45.77435" lon="5.38139">
        <ele>289</ele>
        <time>2022-05-04T14:00:13.731Z</time>
      </trkpt>
      <trkpt lat="45.77305" lon="5.38256">
        <ele>287</ele>
        <time>2022-05-04T14:00:42.199Z</time>
      </trkpt>
      <trkpt lat="45.77261" lon="5.38304">
        <ele>286</ele>
        <time>2022-05-04T14:00:51.832Z</time>
      </trkpt>
      <trkpt lat="45.77207" lon="5.38306">
        <ele>284</ele>
        <time>2022-05-04T14:00:59.500Z</time>
      </trkpt>
      <trkpt lat="45.77076" lon="5.3832">
        <ele>279</ele>
        <time>2022-05-04T14:01:17.962Z</time>
      </trkpt>
      <trkpt lat="45.76969" lon="5.38351">
        <ele>278</ele>
        <time>2022-05-04T14:01:39.260Z</time>
      </trkpt>
      <trkpt lat="45.76862" lon="5.3848">
        <ele>283</ele>
        <time>2022-05-04T14:02:43.610Z</time>
      </trkpt>
      <trkpt lat="45.76816" lon="5.38596">
        <ele>282</ele>
        <time>2022-05-04T14:03:01.392Z</time>
      </trkpt>
      <trkpt lat="45.76716" lon="5.38745">
        <ele>284</ele>
        <time>2022-05-04T14:03:52.525Z</time>
      </trkpt>
      <trkpt lat="45.76636" lon="5.38894">
        <ele>278</ele>
        <time>2022-05-04T14:04:09.683Z</time>
      </trkpt>
      <trkpt lat="45.76573" lon="5.39136">
        <ele>283</ele>
        <time>2022-05-04T14:05:24.455Z</time>
      </trkpt>
      <trkpt lat="45.76526" lon="5.39205">
        <ele>283</ele>
        <time>2022-05-04T14:05:45.276Z</time>
      </trkpt>
      <trkpt lat="45.76373" lon="5.39299">
        <ele>280</ele>
        <time>2022-05-04T14:06:14.298Z</time>
      </trkpt>
      <trkpt lat="45.76262" lon="5.39378">
        <ele>284</ele>
        <time>2022-05-04T14:07:08.752Z</time>
      </trkpt>
      <trkpt lat="45.76104" lon="5.3954">
        <ele>293</ele>
        <time>2022-05-04T14:08:51.410Z</time>
      </trkpt>
      <trkpt lat="45.75971" lon="5.39752">
        <ele>292</ele>
        <time>2022-05-04T14:09:48.568Z</time>
      </trkpt>
      <trkpt lat="45.75833" lon="5.40038">
        <ele>279</ele>
        <time>2022-05-04T14:10:18.211Z</time>
      </trkpt>
      <trkpt lat="45.75739" lon="5.40314">
        <ele>273</ele>
        <time>2022-05-04T14:10:51.574Z</time>
      </trkpt>
      <trkpt lat="45.7574" lon="5.4032">
        <ele>273</ele>
        <time>2022-05-04T14:10:52.906Z</time>
      </trkpt>
      <trkpt lat="45.74973" lon="5.40402">
        <ele>267</ele>
        <time>2022-05-04T14:13:25.764Z</time>
      </trkpt>
      <trkpt lat="45.74923" lon="5.4036">
        <ele>269.7</ele>
        <time>2022-05-04T14:13:56.441Z</time>
      </trkpt>
      <trkpt lat="45.74839" lon="5.40334">
        <ele>270</ele>
        <time>2022-05-04T14:14:23.917Z</time>
      </trkpt>
      <trkpt lat="45.74758" lon="5.40297">
        <ele>268</ele>
        <time>2022-05-04T14:14:37.821Z</time>
      </trkpt>
      <trkpt lat="45.74717" lon="5.40278">
        <ele>268</ele>
        <time>2022-05-04T14:14:51.157Z</time>
      </trkpt>
      <trkpt lat="45.74634" lon="5.40235">
        <ele>268</ele>
        <time>2022-05-04T14:15:18.472Z</time>
      </trkpt>
      <trkpt lat="45.74559" lon="5.40182">
        <ele>268</ele>
        <time>2022-05-04T14:15:44.353Z</time>
      </trkpt>
      <trkpt lat="45.74519" lon="5.40152">
        <ele>269</ele>
        <time>2022-05-04T14:16:01.882Z</time>
      </trkpt>
      <trkpt lat="45.74439" lon="5.40097">
        <ele>269</ele>
        <time>2022-05-04T14:16:29.344Z</time>
      </trkpt>
      <trkpt lat="45.74399" lon="5.40059">
        <ele>269</ele>
        <time>2022-05-04T14:16:44.197Z</time>
      </trkpt>
      <trkpt lat="45.74345" lon="5.39983">
        <ele>270</ele>
        <time>2022-05-04T14:17:10.848Z</time>
      </trkpt>
      <trkpt lat="45.74242" lon="5.39875">
        <ele>273</ele>
        <time>2022-05-04T14:18:01.186Z</time>
      </trkpt>
      <trkpt lat="45.74164" lon="5.39739">
        <ele>276</ele>
        <time>2022-05-04T14:18:50.163Z</time>
      </trkpt>
      <trkpt lat="45.74107" lon="5.39677">
        <ele>278</ele>
        <time>2022-05-04T14:19:19.932Z</time>
      </trkpt>
      <trkpt lat="45.74072" lon="5.39646">
        <ele>280</ele>
        <time>2022-05-04T14:19:41.998Z</time>
      </trkpt>
      <trkpt lat="45.74018" lon="5.39612">
        <ele>281</ele>
        <time>2022-05-04T14:20:03.609Z</time>
      </trkpt>
      <trkpt lat="45.73993" lon="5.39582">
        <ele>281</ele>
        <time>2022-05-04T14:20:13.701Z</time>
      </trkpt>
      <trkpt lat="45.73922" lon="5.39496">
        <ele>280</ele>
        <time>2022-05-04T14:20:31.460Z</time>
      </trkpt>
      <trkpt lat="45.739" lon="5.39465">
        <ele>280</ele>
        <time>2022-05-04T14:20:41.010Z</time>
      </trkpt>
      <trkpt lat="45.73882" lon="5.39422">
        <ele>281</ele>
        <time>2022-05-04T14:20:55.680Z</time>
      </trkpt>
      <trkpt lat="45.73855" lon="5.39264">
        <ele>283</ele>
        <time>2022-05-04T14:21:37.578Z</time>
      </trkpt>
      <trkpt lat="45.73836" lon="5.39225">
        <ele>282</ele>
        <time>2022-05-04T14:21:42.631Z</time>
      </trkpt>
      <trkpt lat="45.73774" lon="5.39119">
        <ele>283</ele>
        <time>2022-05-04T14:22:15.637Z</time>
      </trkpt>
      <trkpt lat="45.73726" lon="5.39064">
        <ele>284.7</ele>
        <time>2022-05-04T14:22:41.114Z</time>
      </trkpt>
      <trkpt lat="45.73728" lon="5.39015">
        <ele>291</ele>
        <time>2022-05-04T14:23:22.009Z</time>
      </trkpt>
      <trkpt lat="45.73717" lon="5.38951">
        <ele>297</ele>
        <time>2022-05-04T14:24:14.637Z</time>
      </trkpt>
      <trkpt lat="45.73706" lon="5.38895">
        <ele>302</ele>
        <time>2022-05-04T14:24:56.832Z</time>
      </trkpt>
      <trkpt lat="45.73701" lon="5.38897">
        <ele>303</ele>
        <time>2022-05-04T14:25:03.029Z</time>
      </trkpt>
      <trkpt lat="45.73635" lon="5.38822">
        <ele>309</ele>
        <time>2022-05-04T14:25:55.980Z</time>
      </trkpt>
      <trkpt lat="45.73631" lon="5.3881">
        <ele>309</ele>
        <time>2022-05-04T14:25:58.852Z</time>
      </trkpt>
      <trkpt lat="45.73602" lon="5.38795">
        <ele>309</ele>
        <time>2022-05-04T14:26:08.395Z</time>
      </trkpt>
      <trkpt lat="45.73572" lon="5.38776">
        <ele>309</ele>
        <time>2022-05-04T14:26:18.546Z</time>
      </trkpt>
      <trkpt lat="45.73514" lon="5.38723">
        <ele>309</ele>
        <time>2022-05-04T14:26:39.837Z</time>
      </trkpt>
      <trkpt lat="45.73452" lon="5.38672">
        <ele>310</ele>
        <time>2022-05-04T14:27:05.215Z</time>
      </trkpt>
      <trkpt lat="45.73401" lon="5.38597">
        <ele>312</ele>
        <time>2022-05-04T14:27:35.400Z</time>
      </trkpt>
      <trkpt lat="45.73355" lon="5.38539">
        <ele>312</ele>
        <time>2022-05-04T14:27:54.365Z</time>
      </trkpt>
      <trkpt lat="45.73324" lon="5.38503">
        <ele>312</ele>
        <time>2022-05-04T14:28:06.715Z</time>
      </trkpt>
      <trkpt lat="45.73285" lon="5.38467">
        <ele>312</ele>
        <time>2022-05-04T14:28:21.074Z</time>
      </trkpt>
      <trkpt lat="45.73146" lon="5.38346">
        <ele>315</ele>
        <time>2022-05-04T14:29:21.646Z</time>
      </trkpt>
      <trkpt lat="45.7311" lon="5.38317">
        <ele>315</ele>
        <time>2022-05-04T14:29:34.428Z</time>
      </trkpt>
      <trkpt lat="45.73033" lon="5.38269">
        <ele>315</ele>
        <time>2022-05-04T14:30:00.417Z</time>
      </trkpt>
      <trkpt lat="45.72932" lon="5.38222">
        <ele>317</ele>
        <time>2022-05-04T14:30:40.136Z</time>
      </trkpt>
      <trkpt lat="45.72831" lon="5.38189">
        <ele>321</ele>
        <time>2022-05-04T14:31:29.742Z</time>
      </trkpt>
      <trkpt lat="45.72789" lon="5.38152">
        <ele>321.1</ele>
        <time>2022-05-04T14:31:45.291Z</time>
      </trkpt>
      <trkpt lat="45.72715" lon="5.38075">
        <ele>317.8</ele>
        <time>2022-05-04T14:31:58.396Z</time>
      </trkpt>
      <trkpt lat="45.72654" lon="5.37849">
        <ele>313.6</ele>
        <time>2022-05-04T14:32:25.658Z</time>
      </trkpt>
      <trkpt lat="45.72599" lon="5.37749">
        <ele>305.9</ele>
        <time>2022-05-04T14:32:36.336Z</time>
      </trkpt>
      <trkpt lat="45.72518" lon="5.37619">
        <ele>302</ele>
        <time>2022-05-04T14:32:54.486Z</time>
      </trkpt>
      <trkpt lat="45.72387" lon="5.37201">
        <ele>302</ele>
        <time>2022-05-04T14:34:33.481Z</time>
      </trkpt>
      <trkpt lat="45.72193" lon="5.36893">
        <ele>301</ele>
        <time>2022-05-04T14:35:58.608Z</time>
      </trkpt>
      <trkpt lat="45.7215" lon="5.36744">
        <ele>302</ele>
        <time>2022-05-04T14:36:36.531Z</time>
      </trkpt>
      <trkpt lat="45.71931" lon="5.36513">
        <ele>303</ele>
        <time>2022-05-04T14:38:03.639Z</time>
      </trkpt>
      <trkpt lat="45.71772" lon="5.36188">
        <ele>297</ele>
        <time>2022-05-04T14:38:49.928Z</time>
      </trkpt>
      <trkpt lat="45.71634" lon="5.35979">
        <ele>298</ele>
        <time>2022-05-04T14:39:55.057Z</time>
      </trkpt>
      <trkpt lat="45.71572" lon="5.35671">
        <ele>300</ele>
        <time>2022-05-04T14:41:10.500Z</time>
      </trkpt>
      <trkpt lat="45.71406" lon="5.35369">
        <ele>302</ele>
        <time>2022-05-04T14:42:39.642Z</time>
      </trkpt>
      <trkpt lat="45.71221" lon="5.35136">
        <ele>317</ele>
        <time>2022-05-04T14:45:03.204Z</time>
      </trkpt>
      <trkpt lat="45.70993" lon="5.34946">
        <ele>311</ele>
        <time>2022-05-04T14:45:46.728Z</time>
      </trkpt>
      <trkpt lat="45.71047" lon="5.34711">
        <ele>307</ele>
        <time>2022-05-04T14:46:15.100Z</time>
      </trkpt>
      <trkpt lat="45.71106" lon="5.34348">
        <ele>304</ele>
        <time>2022-05-04T14:47:04.313Z</time>
      </trkpt>
      <trkpt lat="45.71129" lon="5.34077">
        <ele>299.4</ele>
        <time>2022-05-04T14:47:35.277Z</time>
      </trkpt>
      <trkpt lat="45.71163" lon="5.33941">
        <ele>303</ele>
        <time>2022-05-04T14:48:21.658Z</time>
      </trkpt>
      <trkpt lat="45.71269" lon="5.33813">
        <ele>305</ele>
        <time>2022-05-04T14:49:11.102Z</time>
      </trkpt>
      <trkpt lat="45.7137" lon="5.33719">
        <ele>306</ele>
        <time>2022-05-04T14:49:51.450Z</time>
      </trkpt>
      <trkpt lat="45.71367" lon="5.33714">
        <ele>306</ele>
        <time>2022-05-04T14:49:52.874Z</time>
      </trkpt>
      <trkpt lat="45.71399" lon="5.33676">
        <ele>300.9</ele>
        <time>2022-05-04T14:49:57.869Z</time>
      </trkpt>
      <trkpt lat="45.7142" lon="5.33629">
        <ele>308</ele>
        <time>2022-05-04T14:50:44.379Z</time>
      </trkpt>
      <trkpt lat="45.71449" lon="5.33463">
        <ele>308</ele>
        <time>2022-05-04T14:51:21.357Z</time>
      </trkpt>
      <trkpt lat="45.71445" lon="5.33393">
        <ele>306</ele>
        <time>2022-05-04T14:51:28.072Z</time>
      </trkpt>
      <trkpt lat="45.71455" lon="5.33277">
        <ele>308</ele>
        <time>2022-05-04T14:52:00.641Z</time>
      </trkpt>
      <trkpt lat="45.71511" lon="5.33183">
        <ele>314</ele>
        <time>2022-05-04T14:52:54.187Z</time>
      </trkpt>
      <trkpt lat="45.71526" lon="5.33126">
        <ele>315</ele>
        <time>2022-05-04T14:53:10.964Z</time>
      </trkpt>
      <trkpt lat="45.71594" lon="5.33047">
        <ele>317</ele>
        <time>2022-05-04T14:53:45.232Z</time>
      </trkpt>
      <trkpt lat="45.71638" lon="5.32984">
        <ele>320</ele>
        <time>2022-05-04T14:54:18.513Z</time>
      </trkpt>
      <trkpt lat="45.71737" lon="5.32852">
        <ele>324.4</ele>
        <time>2022-05-04T14:55:18.142Z</time>
      </trkpt>
      <trkpt lat="45.71737" lon="5.32742">
        <ele>322</ele>
        <time>2022-05-04T14:55:29.698Z</time>
      </trkpt>
      <trkpt lat="45.71738" lon="5.32733">
        <ele>322</ele>
        <time>2022-05-04T14:55:31.667Z</time>
      </trkpt>
      <trkpt lat="45.71789" lon="5.326">
        <ele>321</ele>
        <time>2022-05-04T14:55:52.261Z</time>
      </trkpt>
      <trkpt lat="45.71821" lon="5.32559">
        <ele>320</ele>
        <time>2022-05-04T14:55:59.301Z</time>
      </trkpt>
      <trkpt lat="45.71871" lon="5.32496">
        <ele>320.6</ele>
        <time>2022-05-04T14:56:21.765Z</time>
      </trkpt>
      <trkpt lat="45.71835" lon="5.3229">
        <ele>322.2</ele>
        <time>2022-05-04T14:57:12.685Z</time>
      </trkpt>
      <trkpt lat="45.71835" lon="5.32193">
        <ele>325.1</ele>
        <time>2022-05-04T14:57:47.172Z</time>
      </trkpt>
      <trkpt lat="45.71859" lon="5.32137">
        <ele>326.9</ele>
        <time>2022-05-04T14:58:09.336Z</time>
      </trkpt>
      <trkpt lat="45.71837" lon="5.32052">
        <ele>326</ele>
        <time>2022-05-04T14:58:20.899Z</time>
      </trkpt>
      <trkpt lat="45.71862" lon="5.3193">
        <ele>324</ele>
        <time>2022-05-04T14:58:35.581Z</time>
      </trkpt>
      <trkpt lat="45.71869" lon="5.31895">
        <ele>322.7</ele>
        <time>2022-05-04T14:58:38.752Z</time>
      </trkpt>
      <trkpt lat="45.71844" lon="5.31875">
        <ele>325</ele>
        <time>2022-05-04T14:58:58.090Z</time>
      </trkpt>
      <trkpt lat="45.71797" lon="5.31849">
        <ele>332</ele>
        <time>2022-05-04T14:59:58.236Z</time>
      </trkpt>
      <trkpt lat="45.71739" lon="5.31821">
        <ele>338</ele>
        <time>2022-05-04T15:00:46.569Z</time>
      </trkpt>
      <trkpt lat="45.71645" lon="5.31845">
        <ele>340</ele>
        <time>2022-05-04T15:01:23.136Z</time>
      </trkpt>
      <trkpt lat="45.71557" lon="5.31884">
        <ele>341.1</ele>
        <time>2022-05-04T15:01:55.146Z</time>
      </trkpt>
      <trkpt lat="45.715" lon="5.31879">
        <ele>344</ele>
        <time>2022-05-04T15:02:26.210Z</time>
      </trkpt>
      <trkpt lat="45.71452" lon="5.31817">
        <ele>348</ele>
        <time>2022-05-04T15:03:04.143Z</time>
      </trkpt>
      <trkpt lat="45.71429" lon="5.31769">
        <ele>351</ele>
        <time>2022-05-04T15:03:30.205Z</time>
      </trkpt>
      <trkpt lat="45.71416" lon="5.31663">
        <ele>356</ele>
        <time>2022-05-04T15:04:15.813Z</time>
      </trkpt>
      <trkpt lat="45.71416" lon="5.31629">
        <ele>356</ele>
        <time>2022-05-04T15:04:23.161Z</time>
      </trkpt>
      <trkpt lat="45.71422" lon="5.31557">
        <ele>357</ele>
        <time>2022-05-04T15:04:42.291Z</time>
      </trkpt>
      <trkpt lat="45.71472" lon="5.31321">
        <ele>357</ele>
        <time>2022-05-04T15:05:35.586Z</time>
      </trkpt>
      <trkpt lat="45.71482" lon="5.31236">
        <ele>359</ele>
        <time>2022-05-04T15:06:02.364Z</time>
      </trkpt>
      <trkpt lat="45.71504" lon="5.31163">
        <ele>360</ele>
        <time>2022-05-04T15:06:22.941Z</time>
      </trkpt>
      <trkpt lat="45.7153" lon="5.31045">
        <ele>361</ele>
        <time>2022-05-04T15:06:52.851Z</time>
      </trkpt>
      <trkpt lat="45.71542" lon="5.3097">
        <ele>361</ele>
        <time>2022-05-04T15:07:09.478Z</time>
      </trkpt>
      <trkpt lat="45.71557" lon="5.30866">
        <ele>360</ele>
        <time>2022-05-04T15:07:23.150Z</time>
      </trkpt>
      <trkpt lat="45.71553" lon="5.30766">
        <ele>358</ele>
        <time>2022-05-04T15:07:33.970Z</time>
      </trkpt>
      <trkpt lat="45.71598" lon="5.30628">
        <ele>353</ele>
        <time>2022-05-04T15:07:47.724Z</time>
      </trkpt>
      <trkpt lat="45.71636" lon="5.30523">
        <ele>348</ele>
        <time>2022-05-04T15:07:57.254Z</time>
      </trkpt>
      <trkpt lat="45.7167" lon="5.30412">
        <ele>343</ele>
        <time>2022-05-04T15:08:07.138Z</time>
      </trkpt>
      <trkpt lat="45.71766" lon="5.30251">
        <ele>343</ele>
        <time>2022-05-04T15:08:52.888Z</time>
      </trkpt>
      <trkpt lat="45.71807" lon="5.29975">
        <ele>345</ele>
        <time>2022-05-04T15:10:00.114Z</time>
      </trkpt>
      <trkpt lat="45.7183" lon="5.29806">
        <ele>344</ele>
        <time>2022-05-04T15:10:23.837Z</time>
      </trkpt>
      <trkpt lat="45.71871" lon="5.29683">
        <ele>340.2</ele>
        <time>2022-05-04T15:10:36.973Z</time>
      </trkpt>
      <trkpt lat="45.71926" lon="5.29463">
        <ele>332</ele>
        <time>2022-05-04T15:10:57.481Z</time>
      </trkpt>
      <trkpt lat="45.71908" lon="5.29283">
        <ele>327</ele>
        <time>2022-05-04T15:11:15.097Z</time>
      </trkpt>
      <trkpt lat="45.71927" lon="5.29154">
        <ele>322</ele>
        <time>2022-05-04T15:11:26.274Z</time>
      </trkpt>
      <trkpt lat="45.71956" lon="5.29033">
        <ele>319.4</ele>
        <time>2022-05-04T15:11:40.018Z</time>
      </trkpt>
      <trkpt lat="45.71922" lon="5.28699">
        <ele>318</ele>
        <time>2022-05-04T15:12:46.866Z</time>
      </trkpt>
      <trkpt lat="45.71924" lon="5.28509">
        <ele>315.6</ele>
        <time>2022-05-04T15:13:09.978Z</time>
      </trkpt>
      <trkpt lat="45.71914" lon="5.28303">
        <ele>312</ele>
        <time>2022-05-04T15:13:33.179Z</time>
      </trkpt>
      <trkpt lat="45.719" lon="5.28066">
        <ele>314</ele>
        <time>2022-05-04T15:14:30.946Z</time>
      </trkpt>
      <trkpt lat="45.71839" lon="5.27747">
        <ele>312.5</ele>
        <time>2022-05-04T15:15:35.946Z</time>
      </trkpt>
      <trkpt lat="45.71815" lon="5.27648">
        <ele>314</ele>
        <time>2022-05-04T15:16:03.826Z</time>
      </trkpt>
      <trkpt lat="45.71803" lon="5.27503">
        <ele>313</ele>
        <time>2022-05-04T15:16:23.545Z</time>
      </trkpt>
      <trkpt lat="45.71839" lon="5.2732">
        <ele>312</ele>
        <time>2022-05-04T15:16:50.024Z</time>
      </trkpt>
      <trkpt lat="45.7189" lon="5.27159">
        <ele>311</ele>
        <time>2022-05-04T15:17:14.455Z</time>
      </trkpt>
      <trkpt lat="45.71903" lon="5.27063">
        <ele>311</ele>
        <time>2022-05-04T15:17:35.585Z</time>
      </trkpt>
      <trkpt lat="45.71971" lon="5.26941">
        <ele>308</ele>
        <time>2022-05-04T15:17:52.642Z</time>
      </trkpt>
      <trkpt lat="45.72034" lon="5.26765">
        <ele>301</ele>
        <time>2022-05-04T15:18:09.934Z</time>
      </trkpt>
      <trkpt lat="45.72074" lon="5.26627">
        <ele>295.5</ele>
        <time>2022-05-04T15:18:22.774Z</time>
      </trkpt>
      <trkpt lat="45.72089" lon="5.26441">
        <ele>293</ele>
        <time>2022-05-04T15:18:45.267Z</time>
      </trkpt>
      <trkpt lat="45.72122" lon="5.26271">
        <ele>288</ele>
        <time>2022-05-04T15:19:02.166Z</time>
      </trkpt>
      <trkpt lat="45.72198" lon="5.26144">
        <ele>283</ele>
        <time>2022-05-04T15:19:17.856Z</time>
      </trkpt>
      <trkpt lat="45.7225" lon="5.26024">
        <ele>282</ele>
        <time>2022-05-04T15:19:36.845Z</time>
      </trkpt>
      <trkpt lat="45.7234" lon="5.25862">
        <ele>280</ele>
        <time>2022-05-04T15:20:03.378Z</time>
      </trkpt>
      <trkpt lat="45.72353" lon="5.25746">
        <ele>275</ele>
        <time>2022-05-04T15:20:12.814Z</time>
      </trkpt>
      <trkpt lat="45.72342" lon="5.2567">
        <ele>271</ele>
        <time>2022-05-04T15:20:19.324Z</time>
      </trkpt>
      <trkpt lat="45.72296" lon="5.25588">
        <ele>260</ele>
        <time>2022-05-04T15:20:28.147Z</time>
      </trkpt>
      <trkpt lat="45.72241" lon="5.25573">
        <ele>250</ele>
        <time>2022-05-04T15:20:34.874Z</time>
      </trkpt>
      <trkpt lat="45.72142" lon="5.25479">
        <ele>233.6</ele>
        <time>2022-05-04T15:20:49.145Z</time>
      </trkpt>
      <trkpt lat="45.72161" lon="5.2541">
        <ele>231</ele>
        <time>2022-05-04T15:20:55.657Z</time>
      </trkpt>
      <trkpt lat="45.72177" lon="5.25335">
        <ele>229</ele>
        <time>2022-05-04T15:21:03.467Z</time>
      </trkpt>
      <trkpt lat="45.72268" lon="5.25363">
        <ele>228</ele>
        <time>2022-05-04T15:21:21.249Z</time>
      </trkpt>
      <trkpt lat="45.72326" lon="5.25335">
        <ele>225</ele>
        <time>2022-05-04T15:21:29.026Z</time>
      </trkpt>
      <trkpt lat="45.72396" lon="5.25359">
        <ele>221</ele>
        <time>2022-05-04T15:21:37.676Z</time>
      </trkpt>
      <trkpt lat="45.72412" lon="5.25178">
        <ele>217</ele>
        <time>2022-05-04T15:21:56.808Z</time>
      </trkpt>
      <trkpt lat="45.72432" lon="5.2498">
        <ele>218</ele>
        <time>2022-05-04T15:22:43.068Z</time>
      </trkpt>
      <trkpt lat="45.72418" lon="5.24975">
        <ele>218</ele>
        <time>2022-05-04T15:22:47.533Z</time>
      </trkpt>
      <trkpt lat="45.72423" lon="5.24952">
        <ele>216</ele>
        <time>2022-05-04T15:22:49.554Z</time>
      </trkpt>
      <trkpt lat="45.72426" lon="5.24921">
        <ele>216</ele>
        <time>2022-05-04T15:22:56.316Z</time>
      </trkpt>
    </trkseg>
  </trk>
</gpx>